Ege, Indiana
Current Conditions -  °F | °C
As of 11:35 AM on Saturday 20 Dec 2014 (Local Time) from KGWB Reporting Station
Scattered Clouds Scattered Clouds  
Wind Chill: 30°   Ceiling: Unl
Heat Index: 30°   Visibility: 10mi
Dew Point: 23°   Wind: 3mph
Humidity: 75%   Direction: 170°S
Pressure: 30.28"   Gusts: NA
Location:  41.3048°N, 85.2502°W
Report Text: KGWB 201635Z AUTO 17003KT 10SM SCT033 M01/M05 A3028 RMK AO2
Loading
Personal Weather Stations






























Interactive Weather Map New forecast layout! Learn more

10-Day Weather Forecast

Advertisements
Track Severe Weather on mobile